createdAt,value
2024-02-14T00:02:10.808Z,11.4
2024-02-14T00:05:10.184Z,11.4
2024-02-14T00:08:10.353Z,11.4
2024-02-14T00:11:09.823Z,11.3
2024-02-14T00:14:09.812Z,11.2
2024-02-14T00:17:09.932Z,11.2
2024-02-14T00:20:11.101Z,11.3
2024-02-14T00:23:09.800Z,11.4
2024-02-14T00:26:09.762Z,11.2
2024-02-14T00:29:09.802Z,10.8
2024-02-14T00:32:10.317Z,10.7
2024-02-14T00:35:11.817Z,10.6
2024-02-14T00:38:09.990Z,10.4
2024-02-14T00:41:09.720Z,10.5
2024-02-14T00:44:09.665Z,10.5
2024-02-14T00:47:11.330Z,10.4
2024-02-14T00:50:11.218Z,10.5
2024-02-14T00:53:09.893Z,10.6
2024-02-14T00:56:09.790Z,10.6
2024-02-14T00:59:10.541Z,10.6
2024-02-14T01:02:13.189Z,10.8
2024-02-14T01:05:10.023Z,10.9
2024-02-14T01:08:10.196Z,11.1
2024-02-14T01:11:09.892Z,11.1
2024-02-14T01:14:10.060Z,11.2
2024-02-14T01:17:09.717Z,11.2
2024-02-14T01:20:11.269Z,11.3
2024-02-14T01:23:09.719Z,11.2
2024-02-14T01:26:09.682Z,11.3
2024-02-14T01:29:09.880Z,11.3
2024-02-14T01:32:10.408Z,11.3
2024-02-14T01:35:11.235Z,11.1
2024-02-14T01:38:09.806Z,11.2
2024-02-14T01:41:09.961Z,11.3
2024-02-14T01:44:09.846Z,11.5
2024-02-14T01:47:10.187Z,11.6
2024-02-14T01:50:11.071Z,11.7
2024-02-14T01:53:09.988Z,11.7
2024-02-14T01:56:10.098Z,11.6
2024-02-14T01:59:10.052Z,11.6
2024-02-14T02:02:09.971Z,11.5
2024-02-14T02:05:10.520Z,11.6
2024-02-14T02:08:10.493Z,11.3
2024-02-14T02:11:10.125Z,11.0
2024-02-14T02:14:09.690Z,10.8
2024-02-14T02:17:09.843Z,10.6
2024-02-14T02:20:11.294Z,10.5
2024-02-14T02:23:09.993Z,10.6
2024-02-14T02:26:09.813Z,10.7
2024-02-14T02:29:09.835Z,11.0
2024-02-14T02:32:09.930Z,11.3
2024-02-14T02:35:11.203Z,11.7
2024-02-14T02:38:09.666Z,11.7
2024-02-14T02:41:09.720Z,11.8
2024-02-14T02:44:09.800Z,11.8
2024-02-14T02:47:09.881Z,11.7
2024-02-14T02:50:11.156Z,11.7
2024-02-14T02:53:10.087Z,11.6
2024-02-14T02:56:09.901Z,11.5
2024-02-14T02:59:09.692Z,11.7
2024-02-14T03:02:10.336Z,11.9
2024-02-14T03:08:10.416Z,11.6
2024-02-14T03:11:09.856Z,11.8
2024-02-14T03:14:09.857Z,11.6
2024-02-14T03:17:10.063Z,11.5
2024-02-14T03:20:13.207Z,11.2
2024-02-14T03:23:09.808Z,11.2
2024-02-14T03:32:09.835Z,10.8
2024-02-14T03:35:11.034Z,10.8
2024-02-14T03:38:09.793Z,10.7
2024-02-14T03:41:09.712Z,10.6
2024-02-14T03:44:09.715Z,10.4
2024-02-14T03:47:09.831Z,10.3
2024-02-14T03:50:11.041Z,10.3
2024-02-14T03:53:09.786Z,10.2
2024-02-14T03:56:11.924Z,10.2
2024-02-14T03:59:09.803Z,10.2
2024-02-14T04:02:11.683Z,10.5
2024-02-14T04:05:10.753Z,10.9
2024-02-14T04:08:11.419Z,11.5
2024-02-14T04:11:09.931Z,11.8
2024-02-14T04:14:09.735Z,11.7
2024-02-14T04:17:09.936Z,11.8
2024-02-14T04:20:13.882Z,12.0
2024-02-14T04:23:10.020Z,12.1
2024-02-14T04:26:09.807Z,12.3
2024-02-14T04:29:10.088Z,12.3
2024-02-14T04:32:10.339Z,12.2
2024-02-14T04:35:11.146Z,11.9
2024-02-14T04:38:09.756Z,12.0
2024-02-14T04:41:09.911Z,12.1
2024-02-14T04:44:12.149Z,12.3
2024-02-14T04:47:10.014Z,12.4
2024-02-14T04:50:10.926Z,12.5
2024-02-14T04:53:09.791Z,12.1
2024-02-14T04:56:09.739Z,11.6
2024-02-14T04:59:12.721Z,11.1
2024-02-14T05:02:10.297Z,11.1
2024-02-14T05:05:10.812Z,10.9
2024-02-14T05:08:11.305Z,11.0
2024-02-14T05:11:09.852Z,11.1
2024-02-14T05:14:09.850Z,11.3
2024-02-14T05:17:10.341Z,11.3
2024-02-14T05:20:11.200Z,11.2
2024-02-14T05:23:09.733Z,11.0
2024-02-14T05:26:10.061Z,10.8
2024-02-14T05:29:10.003Z,10.9
2024-02-14T05:32:09.999Z,10.9
2024-02-14T05:35:11.018Z,10.8
2024-02-14T05:38:11.637Z,10.9
2024-02-14T05:41:09.979Z,10.9
2024-02-14T05:44:09.714Z,10.9
2024-02-14T05:47:09.845Z,10.9
2024-02-14T05:50:11.169Z,10.9
2024-02-14T05:53:09.992Z,11.0
2024-02-14T05:56:09.944Z,11.0
2024-02-14T05:59:09.706Z,11.2
2024-02-14T06:02:14.890Z,11.6
2024-02-14T06:05:09.950Z,11.9
2024-02-14T06:08:10.363Z,12.1
2024-02-14T06:11:09.848Z,12.4
2024-02-14T06:14:10.224Z,12.6
2024-02-14T06:17:09.802Z,12.7
2024-02-14T06:20:13.572Z,12.7
2024-02-14T06:23:22.322Z,12.5
2024-02-14T06:26:09.816Z,12.4
2024-02-14T06:29:09.894Z,12.3
2024-02-14T06:32:11.089Z,12.4
2024-02-14T06:41:09.696Z,12.4
2024-02-14T06:44:09.762Z,12.5
2024-02-14T06:53:09.684Z,12.2
2024-02-14T07:14:09.795Z,12.4
2024-02-14T07:17:13.008Z,12.8
2024-02-14T07:20:11.132Z,13.0
2024-02-14T07:23:09.774Z,13.1
2024-02-14T07:26:09.749Z,13.2
2024-02-14T07:29:09.878Z,13.2
2024-02-14T07:32:10.424Z,13.3
2024-02-14T07:35:14.781Z,13.3
2024-02-14T07:38:09.874Z,13.4
2024-02-14T07:41:09.828Z,13.3
2024-02-14T07:44:09.890Z,13.2
2024-02-14T07:47:09.971Z,13.0
2024-02-14T07:50:11.116Z,12.9
2024-02-14T07:53:10.141Z,13.1
2024-02-14T07:56:10.058Z,13.2
2024-02-14T07:59:09.941Z,13.4
2024-02-14T08:02:10.703Z,13.1
2024-02-14T08:05:10.178Z,12.7
2024-02-14T08:08:10.376Z,12.4
2024-02-14T08:11:09.866Z,12.3
2024-02-14T08:14:09.846Z,12.4
2024-02-14T08:17:09.727Z,12.6
2024-02-14T08:20:17.249Z,12.8
2024-02-14T08:23:10.147Z,12.8
2024-02-14T08:26:11.159Z,12.7
2024-02-14T08:29:09.974Z,12.7
2024-02-14T08:32:10.222Z,12.8
2024-02-14T08:35:11.622Z,13.1
2024-02-14T08:38:10.998Z,13.2
2024-02-14T08:41:10.068Z,13.1
2024-02-14T08:44:09.885Z,13.1
2024-02-14T08:47:10.064Z,13.1
2024-02-14T08:50:13.810Z,13.3
2024-02-14T08:53:10.033Z,13.3
2024-02-14T08:56:12.547Z,13.1
2024-02-14T08:59:10.456Z,13.0
2024-02-14T09:02:20.477Z,12.8
2024-02-14T09:05:11.934Z,12.9
2024-02-14T09:08:10.254Z,13.0
2024-02-14T09:11:09.879Z,13.3
2024-02-14T09:14:09.785Z,13.4
2024-02-14T09:17:09.842Z,13.6
2024-02-14T09:20:10.812Z,13.6
2024-02-14T09:23:12.336Z,13.6
2024-02-14T09:26:09.895Z,13.7
2024-02-14T09:29:09.935Z,13.7
2024-02-14T09:35:11.213Z,13.7
2024-02-14T09:38:09.892Z,13.7
2024-02-14T09:41:11.877Z,13.7
2024-02-14T09:44:09.892Z,13.7
2024-02-14T09:47:15.084Z,13.7
2024-02-14T09:50:11.218Z,13.7
2024-02-14T09:53:10.807Z,13.7
2024-02-14T09:56:09.892Z,13.7
2024-02-14T09:59:10.971Z,13.7
2024-02-14T10:02:10.080Z,13.4
2024-02-14T10:05:12.555Z,13.1
2024-02-14T10:08:10.213Z,13.0
2024-02-14T10:11:14.500Z,12.9
2024-02-14T10:14:09.839Z,12.9
2024-02-14T10:17:13.493Z,13.3
2024-02-14T10:20:11.049Z,13.5
2024-02-14T10:23:09.933Z,13.6
2024-02-14T10:26:09.687Z,13.5
2024-02-14T10:29:16.436Z,13.3
2024-02-14T10:32:10.237Z,13.2
2024-02-14T10:35:23.045Z,13.1
2024-02-14T10:38:12.107Z,13.3
2024-02-14T10:41:11.012Z,13.3
2024-02-14T10:44:09.792Z,13.1
2024-02-14T10:47:09.822Z,13.2
2024-02-14T10:50:11.510Z,13.3
2024-02-14T10:53:10.128Z,13.4
2024-02-14T10:56:09.957Z,13.6
2024-02-14T10:59:09.784Z,13.6
2024-02-14T11:02:10.389Z,13.9
2024-02-14T11:05:10.702Z,14.0
2024-02-14T11:08:11.023Z,14.1
2024-02-14T11:11:12.676Z,14.1
2024-02-14T11:14:09.787Z,14.0
2024-02-14T11:17:13.241Z,14.1
2024-02-14T11:20:11.729Z,14.1
2024-02-14T11:23:10.906Z,14.1
2024-02-14T11:26:10.504Z,14.1
2024-02-14T11:32:10.762Z,14.2
2024-02-14T11:35:11.808Z,14.3
2024-02-14T11:38:09.803Z,14.3
2024-02-14T11:41:11.919Z,14.5
2024-02-14T11:44:10.159Z,14.5
2024-02-14T11:47:09.889Z,14.6
2024-02-14T11:50:11.454Z,14.6
2024-02-14T11:53:09.974Z,14.6
2024-02-14T11:56:10.878Z,14.5
2024-02-14T11:59:09.908Z,14.3
2024-02-14T12:02:10.168Z,14.2
2024-02-14T12:05:09.956Z,14.2
2024-02-14T12:08:10.964Z,14.1
2024-02-14T12:11:10.121Z,14.1
2024-02-14T12:14:10.103Z,13.9
2024-02-14T12:17:09.805Z,14.0
2024-02-14T12:20:11.465Z,14.0
2024-02-14T12:23:09.965Z,14.1
2024-02-14T12:26:10.109Z,14.1
2024-02-14T12:29:09.867Z,14.1
2024-02-14T12:32:09.990Z,14.2
2024-02-14T12:35:14.367Z,14.3
2024-02-14T12:38:09.887Z,14.4
2024-02-14T12:41:09.835Z,14.5
2024-02-14T12:44:09.856Z,14.6
2024-02-14T12:47:09.876Z,14.6
2024-02-14T12:50:11.013Z,14.5
2024-02-14T12:53:11.524Z,14.4
2024-02-14T12:56:09.852Z,14.4
2024-02-14T12:59:10.479Z,14.5
2024-02-14T13:02:10.810Z,14.3
2024-02-14T13:05:12.427Z,14.3
2024-02-14T13:08:09.908Z,14.3
2024-02-14T13:11:10.512Z,14.5
2024-02-14T13:14:10.619Z,14.5
2024-02-14T13:17:09.944Z,14.6
2024-02-14T13:20:12.496Z,14.5
2024-02-14T13:23:10.857Z,14.6
2024-02-14T13:26:09.871Z,14.4
2024-02-14T13:29:10.068Z,14.1
2024-02-14T13:32:09.965Z,14.0
2024-02-14T13:35:11.754Z,14.0
2024-02-14T13:38:09.922Z,14.0
2024-02-14T13:41:09.980Z,14.1
2024-02-14T13:44:10.112Z,14.0
2024-02-14T13:47:09.974Z,13.6
2024-02-14T13:50:11.116Z,13.1
2024-02-14T13:53:09.956Z,13.1
2024-02-14T13:56:09.879Z,13.2
2024-02-14T13:59:12.998Z,13.3
2024-02-14T14:02:10.221Z,13.3
2024-02-14T14:05:10.184Z,13.7
2024-02-14T14:11:10.086Z,13.9
2024-02-14T14:14:09.946Z,13.9
2024-02-14T14:17:10.971Z,14.0
2024-02-14T14:20:12.193Z,14.0
2024-02-14T14:23:09.923Z,14.0
2024-02-14T14:26:10.060Z,14.2
2024-02-14T14:29:12.393Z,14.3
2024-02-14T14:32:10.183Z,14.4
2024-02-14T14:35:14.344Z,14.6
2024-02-14T14:38:09.890Z,14.6
2024-02-14T14:41:09.950Z,14.6
2024-02-14T14:44:09.869Z,14.6
2024-02-14T14:47:11.268Z,14.6
2024-02-14T14:50:11.330Z,14.5
2024-02-14T14:53:10.228Z,14.6
2024-02-14T14:56:13.674Z,14.5
2024-02-14T14:59:10.198Z,14.7
2024-02-14T15:02:10.469Z,14.8
2024-02-14T15:05:10.233Z,14.5
2024-02-14T15:08:10.944Z,14.1
2024-02-14T15:11:13.566Z,13.8
2024-02-14T15:14:09.969Z,13.7
2024-02-14T15:17:09.952Z,13.6
2024-02-14T15:20:11.258Z,13.6
2024-02-14T15:23:09.944Z,13.7
2024-02-14T15:26:09.817Z,13.8
2024-02-14T15:29:10.081Z,13.7
2024-02-14T15:32:10.156Z,13.6
2024-02-14T15:35:11.587Z,13.6
2024-02-14T15:38:10.585Z,13.5
2024-02-14T15:41:10.145Z,13.5
2024-02-14T15:44:09.822Z,13.5
2024-02-14T15:47:09.979Z,13.5
2024-02-14T15:50:10.250Z,13.9
2024-02-14T15:53:09.760Z,14.0
2024-02-14T15:56:09.900Z,14.4
2024-02-14T15:59:09.805Z,14.7
2024-02-14T16:02:10.141Z,15.1
2024-02-14T16:05:10.604Z,15.1
2024-02-14T16:08:10.163Z,15.2
2024-02-14T16:11:09.758Z,15.3
2024-02-14T16:14:09.922Z,15.2
2024-02-14T16:17:10.024Z,15.3
2024-02-14T16:20:10.827Z,15.3
2024-02-14T16:23:21.729Z,15.2
2024-02-14T16:26:10.011Z,14.9
2024-02-14T16:29:09.915Z,14.7
2024-02-14T16:32:10.242Z,14.4
2024-02-14T16:35:11.183Z,14.6
2024-02-14T16:38:09.817Z,14.6
2024-02-14T16:44:09.794Z,14.6
2024-02-14T16:47:12.961Z,14.3
2024-02-14T16:50:10.956Z,14.3
2024-02-14T16:53:11.710Z,14.2
2024-02-14T16:56:10.144Z,14.2
2024-02-14T16:59:12.672Z,14.3
2024-02-14T17:02:10.282Z,14.5
2024-02-14T17:08:11.406Z,14.9
2024-02-14T17:11:12.669Z,15.2
2024-02-14T17:14:09.953Z,15.3
2024-02-14T17:17:10.189Z,15.0
2024-02-14T17:20:11.289Z,15.2
2024-02-14T17:23:20.421Z,15.0
2024-02-14T17:26:09.868Z,14.8
2024-02-14T17:29:10.286Z,14.6
2024-02-14T17:32:17.273Z,14.7
2024-02-14T17:35:10.987Z,14.9
2024-02-14T17:38:10.670Z,15.2
2024-02-14T17:41:13.484Z,15.3
2024-02-14T17:44:09.970Z,15.3
2024-02-14T17:47:09.966Z,15.3
2024-02-14T17:50:11.183Z,15.4
2024-02-14T17:53:10.013Z,15.5
2024-02-14T17:56:10.630Z,15.5
2024-02-14T17:59:10.020Z,15.5
2024-02-14T18:02:10.351Z,15.6
2024-02-14T18:05:09.938Z,15.3
2024-02-14T18:08:10.648Z,15.0
2024-02-14T18:11:10.106Z,14.8
2024-02-14T18:14:10.052Z,14.7
2024-02-14T18:17:09.809Z,14.7
2024-02-14T18:20:12.543Z,14.8
2024-02-14T18:23:09.894Z,14.9
2024-02-14T18:26:09.717Z,14.9
2024-02-14T18:29:09.760Z,14.9
2024-02-14T18:32:10.045Z,15.0
2024-02-14T18:35:11.434Z,14.9
2024-02-14T18:38:10.080Z,14.8
2024-02-14T18:41:12.553Z,14.8
2024-02-14T18:44:09.857Z,14.7
2024-02-14T18:47:12.186Z,14.7
2024-02-14T18:50:11.376Z,14.8
2024-02-14T18:53:09.955Z,14.8
2024-02-14T18:56:11.010Z,14.9
2024-02-14T18:59:12.032Z,15.0
2024-02-14T19:02:10.238Z,15.1
2024-02-14T19:05:10.875Z,15.2
2024-02-14T19:08:10.680Z,15.3
2024-02-14T19:11:10.250Z,15.4
2024-02-14T19:14:11.599Z,15.2
2024-02-14T19:17:17.632Z,15.2
2024-02-14T19:20:11.217Z,15.3
2024-02-14T19:23:09.832Z,15.4
2024-02-14T19:26:10.055Z,15.4
2024-02-14T19:29:10.103Z,15.3
2024-02-14T19:38:09.674Z,15.2
2024-02-14T19:41:09.904Z,15.4
2024-02-14T19:47:10.003Z,15.5
2024-02-14T19:50:13.772Z,15.5
2024-02-14T19:53:09.886Z,15.4
2024-02-14T19:56:09.958Z,15.3
2024-02-14T20:02:10.091Z,14.9
2024-02-14T20:05:10.136Z,14.8
2024-02-14T20:08:09.956Z,15.1
2024-02-14T20:11:10.024Z,15.4
2024-02-14T20:14:09.899Z,15.5
2024-02-14T20:20:11.547Z,15.0
2024-02-14T20:23:10.764Z,15.0
2024-02-14T21:35:11.204Z,14.1
2024-02-14T21:38:09.829Z,14.3
2024-02-14T21:41:09.890Z,14.5
2024-02-14T21:44:09.800Z,14.6
2024-02-14T21:47:11.475Z,14.5
2024-02-14T21:50:10.799Z,14.4
2024-02-14T21:53:09.727Z,14.5
2024-02-14T21:56:09.714Z,14.4
2024-02-14T21:59:10.505Z,14.3
2024-02-14T22:02:10.050Z,14.4
2024-02-14T22:05:10.283Z,14.7
2024-02-14T22:08:13.653Z,14.8
2024-02-14T22:11:09.968Z,14.7
2024-02-14T22:14:11.605Z,14.7
2024-02-14T22:17:09.830Z,14.6
2024-02-14T22:20:11.175Z,14.5
2024-02-14T22:23:09.700Z,14.5
2024-02-14T22:26:10.263Z,14.3
2024-02-14T22:29:09.653Z,14.2
2024-02-14T22:32:09.995Z,14.1
2024-02-14T22:35:10.903Z,14.0
2024-02-14T22:38:09.940Z,13.9
2024-02-14T22:41:09.711Z,13.9
2024-02-14T22:44:09.936Z,13.9
2024-02-14T22:47:09.914Z,14.0
2024-02-14T22:50:10.906Z,14.4
2024-02-14T22:53:09.814Z,14.7
2024-02-14T22:56:09.782Z,14.9
2024-02-14T22:59:09.787Z,15.0
2024-02-14T23:02:09.929Z,15.0
2024-02-14T23:05:10.078Z,15.1
2024-02-14T23:08:09.810Z,14.8
2024-02-14T23:11:10.862Z,14.3
2024-02-14T23:14:09.708Z,14.4
2024-02-14T23:17:10.063Z,14.4
2024-02-14T23:20:10.699Z,14.2
2024-02-14T23:23:11.524Z,13.9
2024-02-14T23:26:09.699Z,13.8
2024-02-14T23:29:09.887Z,13.8
2024-02-14T23:32:10.364Z,13.7
2024-02-14T23:35:11.481Z,13.9
2024-02-14T23:38:09.932Z,14.2
2024-02-14T23:41:09.812Z,14.7
2024-02-14T23:44:09.691Z,15.0
2024-02-14T23:47:10.288Z,15.0
2024-02-14T23:50:11.190Z,15.1
2024-02-14T23:53:09.939Z,15.0
2024-02-14T23:56:10.155Z,14.9
2024-02-14T23:59:09.927Z,14.9
